Crystalaire, California
Current Conditions -  °F | °C
As of 12:55 AM on Thursday 23 Oct 2014 (Local Time) from KGXA Reporting Station
Clear Clear  
Wind Chill: 55°   Ceiling: Unl
Heat Index: 55°   Visibility: 10mi
Dew Point: 23°   Wind: 6mph
Humidity: 30%   Direction: 160°SSE
Pressure: 30.08"   Gusts: NA
Location:  34.5233°N, 117.774°W
Report Text: KGXA 230755Z AUTO 16005KT 10SM CLR 13/M05 A3008 RMK AO2 SLP163 T01251049 TSNO $
Loading
Personal Weather Stations






























Interactive Weather Map
Tropical Storm Tracking
New forecast layout! Learn more

10-Day Weather Forecast

Advertisements
Track Severe Weather on mobile